createdAt,value
2019-02-09T00:00:19.976Z,0.0
2019-02-09T00:01:20.575Z,0.0
2019-02-09T00:02:19.481Z,0.0
2019-02-09T00:03:19.727Z,0.0
2019-02-09T00:04:19.495Z,0.0
2019-02-09T00:05:20.490Z,0.0
2019-02-09T00:06:35.839Z,0.0
2019-02-09T00:07:20.387Z,0.0
2019-02-09T00:08:19.692Z,0.0
2019-02-09T00:09:19.754Z,0.0
2019-02-09T00:10:19.679Z,0.0
2019-02-09T00:11:20.324Z,0.0
2019-02-09T00:12:19.532Z,0.0
2019-02-09T00:13:19.671Z,0.0
2019-02-09T00:14:19.907Z,0.0
2019-02-09T00:15:19.694Z,0.0
2019-02-09T00:16:19.968Z,0.0
2019-02-09T00:17:19.712Z,0.0
2019-02-09T00:18:19.494Z,0.0
2019-02-09T00:19:19.443Z,0.0
2019-02-09T00:20:19.509Z,0.0
2019-02-09T00:21:19.590Z,0.0
2019-02-09T00:22:20.023Z,0.0
2019-02-09T00:23:19.787Z,0.0
2019-02-09T00:24:20.723Z,0.0
2019-02-09T00:25:19.717Z,0.0
2019-02-09T00:26:19.947Z,0.0
2019-02-09T00:27:20.456Z,0.0
2019-02-09T00:28:20.182Z,0.0
2019-02-09T00:29:19.650Z,0.0
2019-02-09T00:30:20.536Z,0.0
2019-02-09T00:31:20.339Z,0.0
2019-02-09T00:32:20.493Z,0.0
2019-02-09T00:33:19.553Z,0.0
2019-02-09T00:34:19.780Z,0.0
2019-02-09T00:35:21.274Z,0.0
2019-02-09T00:36:19.516Z,0.0
2019-02-09T00:37:19.556Z,0.0
2019-02-09T00:38:21.285Z,0.0
2019-02-09T00:39:19.862Z,0.0
2019-02-09T00:40:20.159Z,0.0
2019-02-09T00:41:19.759Z,0.0
2019-02-09T00:44:00.906Z,0.0
2019-02-09T00:44:09.925Z,0.0
2019-02-09T00:45:10.688Z,0.0
2019-02-09T00:46:09.750Z,0.0
2019-02-09T00:47:10.015Z,0.0
2019-02-09T00:48:09.950Z,0.0
2019-02-09T00:49:09.803Z,0.0
2019-02-09T00:50:09.974Z,0.0
2019-02-09T00:51:10.149Z,0.0
2019-02-09T00:52:10.219Z,0.0
2019-02-09T00:53:10.226Z,0.0
2019-02-09T00:54:09.782Z,0.0
2019-02-09T00:55:10.823Z,0.0
2019-02-09T00:56:09.948Z,0.0
2019-02-09T00:57:11.234Z,0.0
2019-02-09T00:58:09.962Z,0.0
2019-02-09T00:59:09.844Z,0.0
2019-02-09T01:00:10.108Z,0.0
2019-02-09T01:01:11.203Z,0.0
2019-02-09T01:02:10.183Z,0.0
2019-02-09T01:03:09.974Z,0.0
2019-02-09T01:04:10.182Z,0.0
2019-02-09T01:05:09.704Z,0.0
2019-02-09T01:06:09.981Z,0.0
2019-02-09T01:07:09.958Z,0.0
2019-02-09T01:08:10.601Z,0.0
2019-02-09T01:09:10.607Z,0.0
2019-02-09T01:10:09.972Z,0.0
2019-02-09T01:11:11.266Z,0.0
2019-02-09T01:12:09.961Z,0.0
2019-02-09T01:13:09.937Z,0.0
2019-02-09T01:14:10.538Z,0.0
2019-02-09T01:15:10.673Z,0.0
2019-02-09T01:16:11.316Z,0.0
2019-02-09T01:17:10.034Z,0.0
2019-02-09T01:18:11.036Z,0.0
2019-02-09T01:19:10.601Z,0.0
2019-02-09T01:20:10.214Z,0.0
2019-02-09T01:21:11.487Z,0.0
2019-02-09T01:22:11.865Z,0.0
2019-02-09T01:23:10.802Z,0.0
2019-02-09T01:24:11.056Z,0.0
2019-02-09T01:25:13.226Z,0.0
2019-02-09T01:26:10.047Z,0.0
2019-02-09T01:27:09.986Z,0.0
2019-02-09T01:28:09.838Z,0.0
2019-02-09T01:29:10.599Z,0.0
2019-02-09T01:30:10.002Z,0.0
2019-02-09T01:31:09.916Z,0.0
2019-02-09T01:32:10.002Z,0.0
2019-02-09T01:33:11.018Z,0.0
2019-02-09T01:34:10.035Z,0.0
2019-02-09T01:35:10.217Z,0.0
2019-02-09T01:36:09.815Z,0.2
2019-02-09T01:37:09.855Z,0.2
2019-02-09T01:38:10.275Z,0.2
2019-02-09T01:39:26.249Z,0.2
2019-02-09T01:40:10.214Z,0.2
2019-02-09T01:41:10.019Z,1.1
2019-02-09T01:42:11.364Z,1.1
2019-02-09T01:43:10.330Z,1.1
2019-02-09T01:44:12.936Z,1.1
2019-02-09T01:45:10.070Z,1.1
2019-02-09T01:46:09.909Z,1.1
2019-02-09T01:47:10.753Z,1.1
2019-02-09T01:48:10.916Z,0.0
2019-02-09T01:49:10.118Z,0.0
2019-02-09T01:50:10.578Z,0.0
2019-02-09T01:51:11.378Z,0.0
2019-02-09T01:52:09.861Z,0.0
2019-02-09T01:53:10.695Z,0.0
2019-02-09T01:54:10.074Z,0.0
2019-02-09T01:55:10.156Z,0.0
2019-02-09T01:56:10.399Z,0.0
2019-02-09T01:57:10.293Z,0.0
2019-02-09T01:58:11.145Z,0.0
2019-02-09T01:59:09.948Z,0.0
2019-02-09T02:00:10.533Z,0.0
2019-02-09T02:01:10.084Z,0.0
2019-02-09T02:02:09.966Z,0.0
2019-02-09T02:03:10.368Z,0.0
2019-02-09T02:04:10.463Z,0.0
2019-02-09T02:05:10.705Z,0.0
2019-02-09T02:06:12.282Z,0.0
2019-02-09T02:07:11.707Z,0.0
2019-02-09T02:08:09.885Z,0.0
2019-02-09T02:09:10.841Z,0.0
2019-02-09T02:10:10.943Z,0.0
2019-02-09T02:11:11.409Z,0.0
2019-02-09T02:12:09.995Z,0.0
2019-02-09T02:13:10.384Z,0.0
2019-02-09T02:14:10.605Z,0.0
2019-02-09T02:15:10.063Z,0.0
2019-02-09T02:16:10.335Z,0.0
2019-02-09T02:17:26.176Z,0.0
2019-02-09T02:18:10.091Z,0.0
2019-02-09T02:19:09.972Z,0.0
2019-02-09T02:20:10.226Z,0.0
2019-02-09T02:21:10.359Z,0.0
2019-02-09T02:22:10.078Z,0.5
2019-02-09T02:23:10.357Z,0.5
2019-02-09T02:24:10.896Z,0.5
2019-02-09T02:25:10.880Z,0.5
2019-02-09T02:26:10.139Z,0.5
2019-02-09T02:27:20.156Z,0.0
2019-02-09T02:28:11.375Z,0.0
2019-02-09T02:29:10.331Z,0.0
2019-02-09T02:30:10.188Z,0.0
2019-02-09T02:31:09.922Z,0.0
2019-02-09T02:32:10.154Z,0.0
2019-02-09T02:33:10.403Z,0.0
2019-02-09T02:34:10.122Z,0.0
2019-02-09T02:35:10.110Z,0.0
2019-02-09T02:36:10.065Z,0.0
2019-02-09T02:37:10.729Z,0.0
2019-02-09T02:39:23.210Z,0.0
2019-02-09T02:40:23.034Z,0.0
2019-02-09T02:41:23.860Z,0.0
2019-02-09T02:42:23.484Z,0.2
2019-02-09T02:43:22.988Z,0.2
2019-02-09T02:44:23.160Z,0.0
2019-02-09T02:45:23.190Z,0.0
2019-02-09T02:46:23.398Z,0.0
2019-02-09T02:47:23.241Z,0.0
2019-02-09T02:48:23.453Z,0.0
2019-02-09T02:49:51.924Z,0.0
2019-02-09T02:50:23.239Z,0.0
2019-02-09T02:51:23.452Z,0.0
2019-02-09T02:52:23.139Z,0.0
2019-02-09T02:53:23.032Z,0.0
2019-02-09T02:54:23.676Z,0.0
2019-02-09T02:55:23.868Z,0.0
2019-02-09T02:56:23.727Z,0.0
2019-02-09T02:57:24.756Z,0.0
2019-02-09T02:58:23.474Z,0.0
2019-02-09T02:59:23.197Z,0.5
2019-02-09T03:00:31.381Z,0.5
2019-02-09T03:01:23.529Z,0.5
2019-02-09T03:02:23.017Z,0.0
2019-02-09T03:03:24.022Z,0.0
2019-02-09T03:04:23.757Z,0.0
2019-02-09T03:05:23.191Z,0.0
2019-02-09T03:06:23.354Z,0.0
2019-02-09T03:07:23.687Z,0.0
2019-02-09T03:08:23.849Z,0.0
2019-02-09T03:09:23.899Z,0.0
2019-02-09T03:10:23.416Z,0.0
2019-02-09T03:11:23.477Z,0.0
2019-02-09T03:12:23.234Z,1.1
2019-02-09T03:13:23.084Z,1.1
2019-02-09T03:14:23.804Z,1.1
2019-02-09T03:15:24.123Z,0.2
2019-02-09T03:16:23.175Z,0.2
2019-02-09T03:17:23.680Z,0.8
2019-02-09T03:18:23.932Z,0.8
2019-02-09T03:19:23.234Z,0.8
2019-02-09T03:20:23.472Z,1.1
2019-02-09T03:21:23.257Z,1.1
2019-02-09T03:22:23.080Z,0.0
2019-02-09T03:23:23.887Z,0.0
2019-02-09T03:24:23.208Z,0.0
2019-02-09T03:25:23.571Z,0.5
2019-02-09T03:26:23.485Z,0.5
2019-02-09T03:30:46.580Z,0.0
2019-02-09T03:30:54.537Z,0.0
2019-02-09T03:31:53.794Z,0.2
2019-02-09T03:32:53.966Z,0.0
2019-02-09T03:33:54.283Z,0.0
2019-02-09T03:34:54.604Z,0.0
2019-02-09T03:35:54.141Z,0.2
2019-02-09T03:36:54.011Z,0.2
2019-02-09T03:37:53.637Z,0.0
2019-02-09T03:38:53.787Z,0.0
2019-02-09T03:39:53.795Z,0.0
2019-02-09T03:40:53.873Z,0.0
2019-02-09T03:41:53.820Z,0.0
2019-02-09T03:42:54.034Z,0.0
2019-02-09T03:43:53.783Z,0.0
2019-02-09T03:44:53.824Z,0.0
2019-02-09T03:45:53.813Z,0.0
2019-02-09T03:46:54.000Z,0.0
2019-02-09T03:47:53.811Z,1.6
2019-02-09T03:48:54.240Z,1.6
2019-02-09T03:49:53.746Z,1.6
2019-02-09T03:50:54.025Z,0.5
2019-02-09T03:51:53.561Z,0.5
2019-02-09T03:52:53.731Z,1.9
2019-02-09T03:53:54.009Z,1.9
2019-02-09T03:54:53.496Z,1.9
2019-02-09T03:55:53.537Z,1.3
2019-02-09T03:56:53.972Z,1.3
2019-02-09T03:57:53.581Z,2.5
2019-02-09T03:58:53.764Z,2.5
2019-02-09T03:59:54.327Z,2.5
2019-02-09T04:00:55.223Z,6.3
2019-02-09T04:01:54.283Z,6.3
2019-02-09T04:02:53.637Z,32.7
2019-02-09T04:03:54.045Z,32.7
2019-02-09T04:05:10.127Z,32.7
2019-02-09T04:05:53.768Z,9.7
2019-02-09T04:06:53.776Z,9.7
2019-02-09T04:07:53.974Z,9.7
2019-02-09T04:08:54.049Z,5.2
2019-02-09T04:09:53.544Z,5.2
2019-02-09T04:10:54.154Z,5.8
2019-02-09T04:11:53.677Z,5.8
2019-02-09T04:12:53.855Z,5.8
2019-02-09T04:13:54.098Z,5.2
2019-02-09T04:15:18.851Z,5.2
2019-02-09T04:15:54.079Z,5.2
2019-02-09T04:16:53.839Z,5.2
2019-02-09T04:17:56.053Z,5.2
2019-02-09T04:18:54.594Z,3.3
2019-02-09T04:19:54.814Z,3.3
2019-02-09T04:20:53.932Z,6.3
2019-02-09T04:21:53.924Z,6.3
2019-02-09T04:22:53.750Z,6.3
2019-02-09T04:23:54.481Z,5.0
2019-02-09T04:24:56.914Z,5.0
2019-02-09T04:25:54.150Z,5.0
2019-02-09T04:26:53.885Z,5.0
2019-02-09T04:27:55.820Z,5.0
2019-02-09T04:28:54.147Z,5.0
2019-02-09T04:29:54.558Z,5.0
2019-02-09T04:30:54.192Z,5.0
2019-02-09T04:31:54.170Z,5.0
2019-02-09T04:32:53.917Z,5.0
2019-02-09T04:33:54.617Z,3.0
2019-02-09T04:35:22.050Z,3.0
2019-02-09T04:35:54.360Z,3.0
2019-02-09T04:36:54.393Z,2.7
2019-02-09T04:37:53.910Z,2.7
2019-02-09T04:38:53.898Z,2.7
2019-02-09T04:39:54.162Z,2.7
2019-02-09T04:40:53.794Z,2.7
2019-02-09T04:41:53.864Z,0.2
2019-02-09T04:42:53.737Z,0.2
2019-02-09T04:43:54.262Z,0.0
2019-02-09T04:44:53.750Z,0.0
2019-02-09T04:47:06.615Z,2.5
2019-02-09T04:48:06.195Z,2.5
2019-02-09T04:49:06.246Z,1.1
2019-02-09T04:50:06.641Z,1.1
2019-02-09T04:51:06.482Z,1.1
2019-02-09T04:52:06.452Z,4.1
2019-02-09T04:53:07.127Z,4.1
2019-02-09T04:54:06.466Z,5.5
2019-02-09T04:55:06.567Z,5.5
2019-02-09T04:56:08.355Z,5.5
2019-02-09T05:03:40.422Z,3.3
2019-02-09T05:03:53.790Z,3.3
2019-02-09T05:04:53.138Z,6.6
2019-02-09T05:05:53.152Z,6.6
2019-02-09T05:06:53.274Z,6.6
2019-02-09T05:07:54.168Z,6.6
2019-02-09T05:08:53.129Z,6.6
2019-02-09T05:09:53.845Z,5.5
2019-02-09T05:10:53.544Z,5.5
2019-02-09T05:11:53.258Z,5.5
2019-02-09T05:12:53.309Z,5.5
2019-02-09T05:13:53.161Z,5.5
2019-02-09T05:14:53.325Z,4.7
2019-02-09T05:15:53.558Z,4.7
2019-02-09T05:16:53.378Z,5.5
2019-02-09T05:17:53.356Z,5.5
2019-02-09T05:18:53.601Z,5.5
2019-02-09T05:19:53.283Z,3.0
2019-02-09T05:20:53.120Z,3.0
2019-02-09T05:21:53.366Z,7.2
2019-02-09T05:22:53.545Z,7.2
2019-02-09T05:23:53.126Z,7.2
2019-02-09T05:24:53.740Z,7.5
2019-02-09T05:25:53.892Z,7.5
2019-02-09T05:26:53.095Z,5.8
2019-02-09T05:27:53.281Z,5.8
2019-02-09T05:28:55.927Z,5.8
2019-02-09T05:29:53.136Z,6.9
2019-02-09T05:30:54.246Z,6.9
2019-02-09T05:31:53.161Z,7.2
2019-02-09T05:32:53.391Z,7.2
2019-02-09T05:33:53.849Z,7.2
2019-02-09T05:34:54.793Z,7.5
2019-02-09T05:35:53.278Z,7.5
2019-02-09T05:36:53.563Z,7.5
2019-02-09T05:37:53.657Z,8.6
2019-02-09T05:38:53.953Z,8.6
2019-02-09T05:39:53.286Z,5.2
2019-02-09T05:40:54.821Z,5.2
2019-02-09T05:41:56.155Z,5.2
2019-02-09T05:42:57.113Z,5.8
2019-02-09T05:43:57.402Z,5.8
2019-02-09T05:44:54.296Z,5.2
2019-02-09T05:45:53.316Z,5.2
2019-02-09T05:46:53.421Z,5.2
2019-02-09T05:47:55.376Z,5.2
2019-02-09T05:48:53.322Z,5.2
2019-02-09T05:49:53.501Z,5.0
2019-02-09T05:50:53.439Z,5.0
2019-02-09T05:51:53.176Z,5.0
2019-02-09T05:52:54.475Z,4.4
2019-02-09T05:53:53.225Z,4.4
2019-02-09T05:54:53.285Z,5.8
2019-02-09T05:55:54.259Z,5.8
2019-02-09T05:56:56.426Z,5.8
2019-02-09T05:57:53.417Z,4.7
2019-02-09T05:58:53.240Z,4.7
2019-02-09T05:59:54.048Z,4.1
2019-02-09T06:00:53.169Z,4.1
2019-02-09T06:01:54.292Z,4.1
2019-02-09T06:02:54.124Z,2.7
2019-02-09T06:03:53.407Z,2.7
2019-02-09T06:04:54.431Z,3.3
2019-02-09T06:05:53.315Z,3.3
2019-02-09T06:06:53.466Z,3.3
2019-02-09T06:07:56.931Z,2.2
2019-02-09T06:08:53.651Z,2.2
2019-02-09T06:09:57.519Z,2.2
2019-02-09T06:10:53.629Z,3.6
2019-02-09T06:11:53.960Z,3.6
2019-02-09T06:12:54.054Z,4.7
2019-02-09T06:13:53.786Z,4.7
2019-02-09T06:14:53.367Z,4.7
2019-02-09T06:15:53.441Z,5.8
2019-02-09T06:16:53.459Z,5.8
2019-02-09T06:17:54.730Z,5.2
2019-02-09T06:18:53.886Z,5.2
2019-02-09T06:19:53.612Z,5.2
2019-02-09T06:20:53.572Z,6.1
2019-02-09T06:21:53.609Z,6.1
2019-02-09T06:27:50.229Z,6.3
2019-02-09T06:27:59.211Z,6.3
2019-02-09T06:28:59.172Z,6.6
2019-02-09T06:29:59.311Z,6.6
2019-02-09T06:30:59.376Z,21.9
2019-02-09T06:31:59.882Z,21.9
2019-02-09T06:32:59.600Z,5.2
2019-02-09T06:33:59.077Z,5.2
2019-02-09T06:34:59.326Z,5.2
2019-02-09T06:36:00.817Z,5.0
2019-02-09T06:38:13.183Z,6.3
2019-02-09T06:39:12.509Z,6.3
2019-02-09T06:40:12.644Z,6.3
2019-02-09T06:41:12.356Z,4.4
2019-02-09T06:42:12.167Z,4.4
2019-02-09T06:43:11.984Z,5.8
2019-02-09T06:44:12.780Z,5.8
2019-02-09T06:45:12.511Z,5.8
2019-02-09T06:46:11.961Z,5.2
2019-02-09T06:47:13.934Z,5.2
2019-02-09T06:49:30.446Z,6.9
2019-02-09T06:50:25.805Z,6.9
2019-02-09T06:51:26.214Z,5.5
2019-02-09T06:52:26.882Z,5.5
2019-02-09T06:53:33.862Z,4.7
2019-02-09T06:54:26.631Z,4.7
2019-02-09T06:55:26.076Z,4.7
2019-02-09T06:56:26.522Z,4.7
2019-02-09T06:57:26.068Z,4.7
2019-02-09T06:58:25.749Z,7.2
2019-02-09T06:59:27.351Z,7.2
2019-02-09T07:00:28.934Z,7.2
2019-02-09T07:01:26.221Z,7.7
2019-02-09T07:02:38.526Z,7.7
2019-02-09T07:03:26.796Z,6.3
2019-02-09T07:04:26.021Z,6.3
2019-02-09T07:05:25.745Z,6.3
2019-02-09T07:06:26.273Z,4.7
2019-02-09T07:07:26.819Z,4.7
2019-02-09T07:08:27.453Z,4.7
2019-02-09T07:09:42.661Z,4.7
2019-02-09T07:10:26.679Z,4.7
2019-02-09T07:11:25.982Z,4.4
2019-02-09T07:12:27.122Z,4.4
2019-02-09T07:13:29.680Z,4.4
2019-02-09T07:14:26.054Z,17.5
2019-02-09T07:15:27.418Z,17.5
2019-02-09T07:16:25.803Z,5.0
2019-02-09T07:17:26.328Z,5.0
2019-02-09T07:18:26.328Z,5.0
2019-02-09T07:19:26.139Z,4.1
2019-02-09T07:20:26.820Z,4.1
2019-02-09T07:21:25.771Z,4.4
2019-02-09T07:22:25.927Z,4.4
2019-02-09T07:23:25.665Z,4.4
2019-02-09T07:24:26.638Z,8.3
2019-02-09T07:25:25.911Z,8.3
2019-02-09T07:26:26.289Z,9.1
2019-02-09T07:27:55.106Z,9.1
2019-02-09T07:28:25.980Z,9.1
2019-02-09T07:29:25.659Z,5.8
2019-02-09T07:30:31.219Z,5.8
2019-02-09T07:31:25.902Z,5.0
2019-02-09T07:32:26.248Z,5.0
2019-02-09T07:33:27.307Z,5.0
2019-02-09T07:34:26.267Z,10.5
2019-02-09T07:35:26.043Z,10.5
2019-02-09T07:36:26.359Z,3.3
2019-02-09T07:37:25.927Z,3.3
2019-02-09T07:39:41.342Z,3.3
2019-02-09T07:40:39.275Z,3.3
2019-02-09T07:41:40.350Z,6.3
2019-02-09T07:42:39.234Z,6.3
2019-02-09T07:43:39.604Z,6.3
2019-02-09T07:44:39.994Z,6.6
2019-02-09T07:45:39.786Z,6.6
2019-02-09T07:46:39.521Z,8.6
2019-02-09T07:47:40.089Z,8.6
2019-02-09T07:48:39.815Z,8.6
2019-02-09T07:49:39.258Z,8.6
2019-02-09T07:50:41.265Z,8.6
2019-02-09T07:51:39.282Z,9.4
2019-02-09T07:52:42.875Z,9.4
2019-02-09T07:53:40.865Z,9.4
2019-02-09T07:54:39.977Z,6.6
2019-02-09T07:55:41.838Z,6.6
2019-02-09T07:56:43.082Z,6.6
2019-02-09T07:57:39.292Z,6.3
2019-02-09T07:58:41.182Z,6.3
2019-02-09T07:59:39.977Z,6.3
2019-02-09T08:00:39.282Z,6.3
2019-02-09T08:01:42.104Z,6.3
2019-02-09T08:02:43.667Z,2.7
2019-02-09T08:03:45.330Z,2.7
2019-02-09T08:04:41.463Z,5.2
2019-02-09T08:05:39.056Z,5.2
2019-02-09T08:06:42.580Z,5.2
2019-02-09T08:07:39.566Z,4.7
2019-02-09T08:08:39.695Z,4.7
2019-02-09T08:09:40.313Z,5.5
2019-02-09T08:10:39.037Z,5.5
2019-02-09T08:11:38.966Z,5.5
2019-02-09T08:12:39.159Z,4.1
2019-02-09T08:13:39.199Z,4.1
2019-02-09T08:14:39.014Z,4.7
2019-02-09T08:15:39.171Z,4.7
2019-02-09T08:16:40.217Z,4.7
2019-02-09T08:17:39.198Z,3.6
2019-02-09T08:18:39.473Z,3.6
2019-02-09T08:19:39.803Z,3.8
2019-02-09T08:20:39.010Z,3.8
2019-02-09T08:21:39.427Z,3.8
2019-02-09T08:22:39.016Z,2.2
2019-02-09T08:23:39.172Z,2.2
2019-02-09T08:24:39.263Z,2.2
2019-02-09T08:25:39.321Z,3.8
2019-02-09T08:26:39.215Z,3.8
2019-02-09T08:27:39.794Z,3.6
2019-02-09T08:28:39.708Z,3.6
2019-02-09T08:29:41.254Z,3.6
2019-02-09T08:30:39.195Z,3.6
2019-02-09T08:31:39.228Z,3.6
2019-02-09T08:32:39.018Z,3.6
2019-02-09T08:33:39.246Z,3.6
2019-02-09T08:34:39.467Z,3.6
2019-02-09T08:35:40.305Z,4.1
2019-02-09T08:36:39.288Z,4.1
2019-02-09T08:37:39.162Z,3.3
2019-02-09T08:38:39.464Z,3.3
2019-02-09T08:39:49.622Z,3.3
2019-02-09T08:40:39.328Z,4.1
2019-02-09T08:41:39.308Z,4.1
2019-02-09T08:42:39.915Z,4.1
2019-02-09T08:43:39.487Z,4.1
2019-02-09T08:44:38.991Z,4.1
2019-02-09T08:45:39.246Z,5.8
2019-02-09T08:46:39.008Z,5.8
2019-02-09T08:47:39.099Z,3.6
2019-02-09T08:48:39.498Z,3.6
2019-02-09T08:49:39.523Z,3.6
2019-02-09T08:50:39.512Z,6.6
2019-02-09T08:51:39.199Z,6.6
2019-02-09T08:52:39.209Z,5.5
2019-02-09T08:53:39.477Z,5.5
2019-02-09T08:54:39.482Z,5.5
2019-02-09T08:55:39.204Z,7.2
2019-02-09T08:56:39.261Z,7.2
2019-02-09T08:57:39.055Z,7.2
2019-02-09T08:58:39.033Z,7.5
2019-02-09T08:59:39.288Z,7.5
2019-02-09T09:00:39.268Z,6.6
2019-02-09T09:01:39.251Z,6.6
2019-02-09T09:02:39.182Z,6.6
2019-02-09T09:03:39.349Z,25.2
2019-02-09T09:04:39.171Z,25.2
2019-02-09T09:05:39.291Z,31.3
2019-02-09T09:06:39.255Z,31.3
2019-02-09T09:07:39.499Z,31.3
2019-02-09T09:08:39.994Z,9.1
2019-02-09T09:09:39.240Z,9.1
2019-02-09T09:10:39.236Z,9.1
2019-02-09T09:11:39.494Z,9.1
2019-02-09T09:12:39.512Z,9.1
2019-02-09T09:13:39.092Z,8.0
2019-02-09T09:24:31.498Z,8.0
2019-02-09T09:25:32.154Z,8.8
2019-02-09T09:26:31.697Z,11.9
2019-02-09T09:27:31.906Z,11.9
2019-02-09T09:28:31.724Z,12.5
2019-02-09T09:29:31.879Z,12.5
2019-02-09T09:30:31.950Z,12.5
2019-02-09T09:31:32.555Z,10.8
2019-02-09T09:32:32.163Z,10.8
2019-02-09T09:33:32.247Z,13.3
2019-02-09T09:34:32.928Z,13.3
2019-02-09T09:35:33.472Z,13.3
2019-02-09T09:36:32.119Z,15.0
2019-02-09T09:37:31.981Z,15.0
2019-02-09T09:38:31.915Z,12.7
2019-02-09T09:39:31.765Z,12.7
2019-02-09T09:40:32.829Z,12.7
2019-02-09T09:41:32.132Z,13.6
2019-02-09T09:42:31.732Z,13.6
2019-02-09T09:43:34.021Z,47.7
2019-02-09T09:44:32.139Z,47.7
2019-02-09T09:45:32.190Z,47.7
2019-02-09T09:46:31.749Z,11.1
2019-02-09T09:47:32.353Z,11.1
2019-02-09T09:48:31.914Z,11.1
2019-02-09T09:49:32.242Z,11.6
2019-02-09T09:50:32.970Z,11.6
2019-02-09T09:51:31.994Z,11.6
2019-02-09T09:52:31.849Z,11.6
2019-02-09T09:53:31.895Z,11.6
2019-02-09T09:54:31.969Z,15.5
2019-02-09T09:55:31.947Z,15.5
2019-02-09T09:56:32.027Z,61.6
2019-02-09T09:57:31.988Z,61.6
2019-02-09T09:58:32.253Z,61.6
2019-02-09T09:59:32.204Z,41.6
2019-02-09T10:00:31.965Z,41.6
2019-02-09T10:01:31.955Z,38.6
2019-02-09T10:03:00.653Z,38.6
2019-02-09T10:03:32.246Z,38.6
2019-02-09T10:04:32.169Z,11.6
2019-02-09T10:05:31.991Z,11.6
2019-02-09T10:06:32.313Z,12.2
2019-02-09T10:07:31.950Z,12.2
2019-02-09T10:08:32.088Z,12.2
2019-02-09T10:09:31.946Z,13.0
2019-02-09T10:10:32.191Z,13.0
2019-02-09T10:11:31.996Z,13.6
2019-02-09T10:12:32.258Z,13.6
2019-02-09T10:13:32.450Z,13.6
2019-02-09T10:14:32.238Z,11.3
2019-02-09T10:15:32.395Z,11.3
2019-02-09T10:16:31.998Z,11.6
2019-02-09T10:17:31.817Z,11.6
2019-02-09T10:18:32.225Z,11.6
2019-02-09T10:19:32.489Z,13.0
2019-02-09T10:20:31.875Z,13.0
2019-02-09T10:21:32.222Z,13.0
2019-02-09T10:22:32.031Z,13.0
2019-02-09T10:23:31.801Z,13.0
2019-02-09T10:24:31.820Z,11.3
2019-02-09T10:25:31.971Z,11.3
2019-02-09T10:26:32.027Z,11.3
2019-02-09T10:27:31.848Z,15.0
2019-02-09T10:28:32.004Z,15.0
2019-02-09T10:29:32.016Z,50.5
2019-02-09T10:30:32.654Z,50.5
2019-02-09T10:31:32.015Z,50.5
2019-02-09T10:32:32.247Z,50.5
2019-02-09T10:33:32.035Z,50.5
2019-02-09T10:34:31.932Z,13.6
2019-02-09T10:35:32.290Z,13.6
2019-02-09T10:36:32.311Z,13.6
2019-02-09T10:37:32.023Z,11.9
2019-02-09T10:38:33.289Z,11.9
2019-02-09T10:39:34.484Z,12.2
2019-02-09T10:40:32.252Z,12.2
2019-02-09T10:41:32.043Z,12.2
2019-02-09T10:42:32.282Z,11.6
2019-02-09T10:43:32.229Z,11.6
2019-02-09T10:44:31.999Z,8.8
2019-02-09T10:45:32.047Z,8.8
2019-02-09T10:46:31.915Z,8.8
2019-02-09T10:47:31.803Z,10.8
2019-02-09T10:48:32.020Z,10.8
2019-02-09T10:49:31.933Z,10.8
2019-02-09T10:50:31.874Z,9.1
2019-02-09T10:51:32.494Z,9.1
2019-02-09T10:52:32.169Z,10.8
2019-02-09T10:53:32.019Z,10.8
2019-02-09T10:54:32.280Z,10.8
2019-02-09T10:55:32.088Z,11.1
2019-02-09T10:56:32.348Z,11.1
2019-02-09T10:57:32.073Z,10.0
2019-02-09T10:58:32.388Z,10.0
2019-02-09T10:59:32.063Z,10.0
2019-02-09T11:00:32.033Z,9.4
2019-02-09T11:01:32.281Z,9.4
2019-02-09T11:02:32.038Z,9.7
2019-02-09T11:03:31.856Z,9.7
2019-02-09T11:04:32.500Z,9.7
2019-02-09T11:05:31.891Z,6.6
2019-02-09T11:06:32.327Z,6.6
2019-02-09T11:07:31.927Z,7.7
2019-02-09T11:08:32.370Z,7.7
2019-02-09T11:09:32.083Z,7.7
2019-02-09T11:10:32.340Z,9.1
2019-02-09T11:11:32.071Z,9.1
2019-02-09T11:12:31.884Z,9.1
2019-02-09T11:13:32.187Z,9.1
2019-02-09T11:14:32.165Z,9.1
2019-02-09T11:15:31.939Z,52.2
2019-02-09T11:16:31.870Z,52.2
2019-02-09T11:17:32.166Z,9.7
2019-02-09T11:18:32.802Z,9.7
2019-02-09T11:19:32.494Z,9.7
2019-02-09T11:20:32.109Z,10.5
2019-02-09T11:21:31.963Z,10.5
2019-02-09T11:22:32.932Z,10.5
2019-02-09T11:23:31.883Z,9.4
2019-02-09T11:24:32.801Z,9.4
2019-02-09T11:25:31.909Z,10.2
2019-02-09T11:26:32.045Z,10.2
2019-02-09T11:27:31.926Z,10.2
2019-02-09T11:28:32.665Z,7.7
2019-02-09T11:29:32.095Z,7.7
2019-02-09T11:30:32.639Z,5.0
2019-02-09T11:31:32.177Z,5.0
2019-02-09T11:32:32.401Z,5.0
2019-02-09T11:33:32.366Z,6.9
2019-02-09T11:34:31.999Z,6.9
2019-02-09T11:35:32.341Z,7.5
2019-02-09T11:36:31.924Z,7.5
2019-02-09T11:37:33.122Z,7.5
2019-02-09T11:38:32.119Z,6.6
2019-02-09T11:39:32.384Z,6.6
2019-02-09T11:40:33.202Z,9.7
2019-02-09T11:41:33.024Z,9.7
2019-02-09T11:42:32.216Z,9.7
2019-02-09T11:43:32.453Z,9.1
2019-02-09T11:44:32.098Z,9.1
2019-02-09T11:45:31.925Z,9.1
2019-02-09T11:46:32.164Z,9.1
2019-02-09T11:47:32.438Z,9.1
2019-02-09T11:48:32.029Z,8.6
2019-02-09T11:49:32.744Z,8.6
2019-02-09T11:50:32.441Z,8.6
2019-02-09T11:51:31.952Z,7.5
2019-02-09T11:52:32.250Z,7.5
2019-02-09T11:53:32.137Z,7.5
2019-02-09T11:54:32.786Z,7.5
2019-02-09T11:55:32.723Z,7.5
2019-02-09T11:56:32.188Z,5.2
2019-02-09T11:57:32.555Z,5.2
2019-02-09T11:58:32.411Z,6.3
2019-02-09T11:59:32.160Z,6.3
2019-02-09T12:00:32.227Z,6.3
2019-02-09T12:01:32.195Z,6.1
2019-02-09T12:02:32.014Z,6.1
2019-02-09T12:03:32.195Z,7.5
2019-02-09T12:04:32.209Z,7.5
2019-02-09T12:05:32.540Z,7.5
2019-02-09T12:06:32.437Z,36.9
2019-02-09T12:07:33.953Z,36.9
2019-02-09T12:08:32.569Z,35.5
2019-02-09T12:09:34.774Z,35.5
2019-02-09T12:10:32.554Z,35.5
2019-02-09T12:11:31.977Z,8.6
2019-02-09T12:12:32.565Z,8.6
2019-02-09T12:13:32.186Z,10.8
2019-02-09T12:14:32.363Z,10.8
2019-02-09T12:15:32.199Z,10.8
2019-02-09T12:16:32.434Z,13.6
2019-02-09T12:17:32.280Z,13.6
2019-02-09T12:18:32.479Z,14.1
2019-02-09T12:19:32.582Z,14.1
2019-02-09T12:20:32.223Z,14.1
2019-02-09T12:21:32.428Z,14.4
2019-02-09T12:22:32.965Z,14.4
2019-02-09T12:23:32.468Z,14.4
2019-02-09T12:24:32.016Z,11.3
2019-02-09T12:25:32.216Z,11.3
2019-02-09T12:26:32.186Z,11.6
2019-02-09T12:27:32.448Z,11.6
2019-02-09T12:28:32.254Z,11.6
2019-02-09T12:29:32.287Z,38.3
2019-02-09T12:30:32.491Z,38.3
2019-02-09T12:31:32.199Z,16.9
2019-02-09T12:32:32.205Z,16.9
2019-02-09T12:34:00.791Z,16.9
2019-02-09T12:34:32.298Z,16.9
2019-02-09T12:35:32.197Z,16.9
2019-02-09T12:36:32.338Z,16.1
2019-02-09T12:37:32.188Z,16.1
2019-02-09T12:38:32.468Z,16.1
2019-02-09T12:39:32.233Z,15.5
2019-02-09T12:40:32.282Z,15.5
2019-02-09T12:41:32.059Z,14.1
2019-02-09T12:42:32.272Z,14.1
2019-02-09T12:43:32.511Z,14.1
2019-02-09T12:44:33.384Z,11.6
2019-02-09T12:45:32.292Z,11.6
2019-02-09T12:46:32.279Z,13.3
2019-02-09T12:47:32.339Z,13.3
2019-02-09T12:48:32.246Z,13.3
2019-02-09T12:49:32.429Z,14.4
2019-02-09T12:50:32.303Z,14.4
2019-02-09T12:51:32.777Z,14.4
2019-02-09T12:52:32.519Z,11.1
2019-02-09T12:53:32.172Z,11.1
2019-02-09T12:54:32.281Z,8.8
2019-02-09T12:55:32.190Z,8.8
2019-02-09T12:56:32.589Z,8.8
2019-02-09T12:57:32.482Z,11.1
2019-02-09T12:58:32.477Z,11.1
2019-02-09T12:59:32.031Z,14.7
2019-02-09T13:00:32.250Z,14.7
2019-02-09T13:01:32.235Z,14.7
2019-02-09T13:02:32.341Z,42.7
2019-02-09T13:03:32.340Z,42.7
2019-02-09T13:04:32.715Z,10.2
2019-02-09T13:05:32.513Z,10.2
2019-02-09T13:06:32.034Z,10.2
2019-02-09T13:07:32.338Z,10.8
2019-02-09T13:08:32.346Z,10.8
2019-02-09T13:09:32.339Z,16.6
2019-02-09T13:10:32.414Z,16.6
2019-02-09T13:11:32.560Z,16.6
2019-02-09T13:12:32.267Z,12.5
2019-02-09T13:13:33.480Z,12.5
2019-02-09T13:14:32.251Z,12.5
2019-02-09T13:15:32.025Z,12.5
2019-02-09T13:16:32.035Z,12.5
2019-02-09T13:17:32.551Z,11.6
2019-02-09T13:18:34.649Z,11.6
2019-02-09T13:19:35.457Z,9.4
2019-02-09T13:20:32.410Z,9.4
2019-02-09T13:21:32.431Z,9.4
2019-02-09T13:22:32.457Z,11.6
2019-02-09T13:23:33.444Z,11.6
2019-02-09T13:24:32.338Z,11.6
2019-02-09T13:25:32.311Z,10.5
2019-02-09T13:26:32.179Z,10.5
2019-02-09T13:27:33.126Z,6.9
2019-02-09T13:28:32.470Z,6.9
2019-02-09T13:29:32.703Z,6.9
2019-02-09T13:30:32.511Z,8.0
2019-02-09T13:31:32.570Z,8.0
2019-02-09T13:32:32.671Z,9.7
2019-02-09T13:33:38.621Z,9.7
2019-02-09T13:34:32.311Z,9.7
2019-02-09T13:35:32.310Z,9.7
2019-02-09T13:36:32.225Z,9.7
2019-02-09T13:37:32.513Z,10.5
2019-02-09T13:38:32.356Z,10.5
2019-02-09T13:39:32.387Z,10.5
2019-02-09T13:40:32.338Z,10.5
2019-02-09T13:41:32.218Z,10.5
2019-02-09T13:42:32.783Z,11.1
2019-02-09T13:43:32.269Z,11.1
2019-02-09T13:44:32.166Z,11.1
2019-02-09T13:45:32.474Z,9.4
2019-02-09T13:46:32.595Z,9.4
2019-02-09T13:47:32.787Z,9.7
2019-02-09T13:48:32.527Z,9.7
2019-02-09T13:49:32.627Z,9.7
2019-02-09T13:50:33.003Z,11.1
2019-02-09T13:51:32.517Z,11.1
2019-02-09T13:52:32.331Z,11.1
2019-02-09T13:53:32.317Z,8.8
2019-02-09T13:54:32.565Z,8.8
2019-02-09T13:55:33.042Z,8.8
2019-02-09T13:56:32.292Z,8.8
2019-02-09T13:57:33.181Z,8.8
2019-02-09T13:58:32.468Z,63.6
2019-02-09T13:59:32.510Z,63.6
2019-02-09T14:00:33.003Z,48.3
2019-02-09T14:01:32.396Z,48.3
2019-02-09T14:02:32.367Z,48.3
2019-02-09T14:03:32.628Z,11.9
2019-02-09T14:04:32.894Z,11.9
2019-02-09T14:05:33.080Z,10.0
2019-02-09T14:06:32.766Z,10.0
2019-02-09T14:07:32.347Z,10.0